Webcam & Weather

This webcam image will automatically refresh every 15 seconds.


METAR and TAF for EGLL Heathrow (12 Nautical Miles East of White Waltham)

Available data for EGLL from the past hour
LONDON/HEATHROW
Metar
EGLL 201550Z AUTO 27006KT 220V310 9999 NCD 25/12 Q1022 NOSIG

15:50 UTC

Wind: 270° 6kt

Visibility: 9999 m

Sky:

Temp: 25 deg C / 77 deg F

Dewpoint: 12 deg C / 53.6 deg F

Pressure: 1022 hPa

TAF
TAF EGLL 201113Z 2012/2118 31004KT CAVOK BECMG 2102/2105 10010KT 6000 BECMG 2107/2110 CAVOK

Play 24 hour timelapse | Play 30 day timelapse

Comments are closed.